createdAt,value
2023-05-09T00:02:03.047Z,16.90
2023-05-09T00:04:30.161Z,17.83
2023-05-09T00:06:56.747Z,18.90
2023-05-09T00:09:23.200Z,19.77
2023-05-09T00:11:49.641Z,18.55
2023-05-09T00:14:18.279Z,23.27
2023-05-09T00:16:45.223Z,23.10
2023-05-09T00:19:13.027Z,23.50
2023-05-09T00:21:39.507Z,21.92
2023-05-09T00:24:06.144Z,24.13
2023-05-09T00:26:32.545Z,24.15
2023-05-09T00:28:59.372Z,22.38
2023-05-09T00:31:25.955Z,21.88
2023-05-09T00:33:53.708Z,23.95
2023-05-09T00:36:20.204Z,20.27
2023-05-09T00:38:47.313Z,23.38
2023-05-09T00:41:13.782Z,20.45
2023-05-09T00:43:40.357Z,21.88
2023-05-09T00:46:06.955Z,21.25
2023-05-09T00:48:33.500Z,20.52
2023-05-09T00:51:00.155Z,21.95
2023-05-09T00:53:26.714Z,22.70
2023-05-09T00:55:55.698Z,20.40
2023-05-09T00:58:22.123Z,21.10
2023-05-09T01:00:48.567Z,19.30
2023-05-09T01:03:15.157Z,21.77
2023-05-09T01:05:52.777Z,20.80
2023-05-09T01:08:28.481Z,22.45
2023-05-09T01:10:58.368Z,21.77
2023-05-09T01:13:32.067Z,23.65
2023-05-09T01:16:01.500Z,20.05
2023-05-09T01:18:40.485Z,21.60
2023-05-09T01:21:11.234Z,22.10
2023-05-09T01:23:48.914Z,18.85
2023-05-09T01:26:38.420Z,20.90
2023-05-09T01:29:23.663Z,20.92
2023-05-09T01:31:50.677Z,23.83
2023-05-09T01:34:18.329Z,23.30
2023-05-09T01:36:46.890Z,20.70
2023-05-09T01:39:13.949Z,23.20
2023-05-09T01:41:40.651Z,20.85
2023-05-09T01:44:09.655Z,23.80
2023-05-09T01:46:37.282Z,23.10
2023-05-09T01:49:05.395Z,24.45
2023-05-09T01:51:33.042Z,22.45
2023-05-09T01:54:01.008Z,21.63
2023-05-09T01:56:27.684Z,22.33
2023-05-09T01:58:55.853Z,23.20
2023-05-09T02:01:23.814Z,23.33
2023-05-09T02:03:52.581Z,23.98
2023-05-09T02:06:20.821Z,23.55
2023-05-09T02:08:48.247Z,23.00
2023-05-09T02:13:41.039Z,22.13
2023-05-09T02:16:08.182Z,21.15
2023-05-09T02:18:36.486Z,23.75
2023-05-09T02:21:03.422Z,22.00
2023-05-09T02:23:30.347Z,25.70
2023-05-09T02:25:57.019Z,26.58
2023-05-09T02:28:25.463Z,27.08
2023-05-09T02:30:52.303Z,26.98
2023-05-09T02:33:19.042Z,24.92
2023-05-09T02:35:46.373Z,26.00
2023-05-09T02:40:39.483Z,23.88
2023-05-09T02:43:05.868Z,23.80
2023-05-09T02:45:32.414Z,27.45
2023-05-09T02:47:59.199Z,25.90
2023-05-09T02:50:26.816Z,27.23
2023-05-09T02:52:53.283Z,23.45
2023-05-09T02:55:19.912Z,27.67
2023-05-09T02:57:46.410Z,23.83
2023-05-09T03:00:13.117Z,22.40
2023-05-09T03:02:39.853Z,24.45
2023-05-09T03:05:10.836Z,25.27
2023-05-09T03:07:37.369Z,22.80
2023-05-09T03:10:04.173Z,24.60
2023-05-09T03:12:31.287Z,23.25
2023-05-09T03:14:57.752Z,22.00
2023-05-09T03:17:24.560Z,21.58
2023-05-09T03:19:51.119Z,24.05
2023-05-09T03:22:17.724Z,24.45
2023-05-09T03:24:52.724Z,22.27
2023-05-09T03:27:19.389Z,25.17
2023-05-09T03:29:46.463Z,23.75
2023-05-09T03:32:15.351Z,25.05
2023-05-09T03:34:42.050Z,23.83
2023-05-09T03:37:08.613Z,23.25
2023-05-09T03:39:38.748Z,23.05
2023-05-09T03:42:05.511Z,23.95
2023-05-09T03:44:32.082Z,25.88
2023-05-09T03:46:59.959Z,22.15
2023-05-09T03:49:31.057Z,25.13
2023-05-09T03:51:57.668Z,22.33
2023-05-09T03:54:26.195Z,21.80
2023-05-09T03:56:52.709Z,21.92
2023-05-09T03:59:19.198Z,23.67
2023-05-09T04:01:45.970Z,22.90
2023-05-09T04:04:12.707Z,22.35
2023-05-09T04:06:39.284Z,22.63
2023-05-09T04:09:08.220Z,19.80
2023-05-09T04:11:34.928Z,22.75
2023-05-09T04:14:01.845Z,25.95
2023-05-09T04:16:31.889Z,25.88
2023-05-09T04:18:58.897Z,23.08
2023-05-09T04:21:25.726Z,25.83
2023-05-09T04:23:55.310Z,24.55
2023-05-09T04:26:31.193Z,22.55
2023-05-09T04:28:58.854Z,21.35
2023-05-09T04:31:26.746Z,21.65
2023-05-09T04:33:53.624Z,20.27
2023-05-09T04:36:21.196Z,20.23
2023-05-09T04:38:47.957Z,18.05
2023-05-09T04:41:18.430Z,20.42
2023-05-09T04:43:45.024Z,18.25
2023-05-09T04:46:11.784Z,20.90
2023-05-09T04:48:38.460Z,16.90
2023-05-09T04:51:04.933Z,19.17
2023-05-09T04:53:31.982Z,16.55
2023-05-09T04:58:26.559Z,18.50
2023-05-09T05:00:54.694Z,19.58
2023-05-09T05:03:21.789Z,16.77
2023-05-09T05:05:48.909Z,16.92
2023-05-09T05:08:15.801Z,16.20
2023-05-09T05:10:42.949Z,17.00
2023-05-09T05:13:12.137Z,16.30
2023-05-09T05:15:42.573Z,15.60
2023-05-09T05:20:36.389Z,14.05
2023-05-09T05:23:02.978Z,16.60
2023-05-09T05:25:29.512Z,14.85
2023-05-09T05:27:57.092Z,15.90
2023-05-09T05:30:23.537Z,14.65
2023-05-09T05:32:50.688Z,16.75
2023-05-09T05:35:22.522Z,15.77
2023-05-09T05:37:50.251Z,15.73
2023-05-09T05:40:17.264Z,13.35
2023-05-09T05:42:46.662Z,14.23
2023-05-09T05:45:13.344Z,14.07
2023-05-09T05:47:43.599Z,14.15
2023-05-09T05:50:11.903Z,12.73
2023-05-09T05:52:39.841Z,12.40
2023-05-09T05:55:07.942Z,13.57
2023-05-09T05:57:35.363Z,15.55
2023-05-09T06:02:28.649Z,15.45
2023-05-09T06:04:56.157Z,13.95
2023-05-09T06:07:23.334Z,13.43
2023-05-09T06:09:50.792Z,13.90
2023-05-09T06:12:17.314Z,15.88
2023-05-09T06:14:43.923Z,14.20
2023-05-09T06:17:10.566Z,15.75
2023-05-09T06:19:37.716Z,14.00
2023-05-09T06:22:04.165Z,13.07
2023-05-09T06:24:36.625Z,15.68
2023-05-09T06:27:04.266Z,13.52
2023-05-09T06:29:31.000Z,16.02
2023-05-09T06:31:57.670Z,16.17
2023-05-09T06:34:24.222Z,12.75
2023-05-09T06:36:50.878Z,17.83
2023-05-09T06:39:17.327Z,16.27
2023-05-09T06:41:43.828Z,14.32
2023-05-09T06:44:10.384Z,17.85
2023-05-09T06:46:36.977Z,13.38
2023-05-09T06:49:03.609Z,13.40
2023-05-09T06:51:30.111Z,13.25
2023-05-09T06:53:56.627Z,14.27
2023-05-09T06:56:23.441Z,17.27
2023-05-09T06:58:50.085Z,11.93
2023-05-09T07:01:17.676Z,14.95
2023-05-09T07:03:47.499Z,14.93
2023-05-09T07:06:14.173Z,15.98
2023-05-09T07:08:40.932Z,11.52
2023-05-09T07:11:07.486Z,13.40
2023-05-09T07:13:34.152Z,13.93
2023-05-09T07:16:00.789Z,13.25
2023-05-09T07:18:27.806Z,15.10
2023-05-09T07:20:54.608Z,13.70
2023-05-09T07:23:23.246Z,19.38
2023-05-09T07:25:49.741Z,13.48
2023-05-09T07:28:16.222Z,14.68
2023-05-09T07:30:43.694Z,15.35
2023-05-09T07:33:12.676Z,11.27
2023-05-09T07:35:39.305Z,13.48
2023-05-09T07:38:06.501Z,17.98
2023-05-09T07:40:37.197Z,17.83
2023-05-09T07:43:03.756Z,16.00
2023-05-09T07:45:30.299Z,14.23
2023-05-09T07:47:57.102Z,14.25
2023-05-09T07:50:23.693Z,14.00
2023-05-09T07:52:51.208Z,14.13
2023-05-09T07:55:18.271Z,12.93
2023-05-09T07:57:45.090Z,14.05
2023-05-09T08:00:11.946Z,12.20
2023-05-09T08:02:41.680Z,12.07
2023-05-09T08:05:08.718Z,11.60
2023-05-09T08:07:36.394Z,13.30
2023-05-09T08:10:03.180Z,15.80
2023-05-09T08:12:29.689Z,14.13
2023-05-09T08:14:56.143Z,13.60
2023-05-09T08:17:22.637Z,12.07
2023-05-09T08:19:49.182Z,12.63
2023-05-09T08:22:19.400Z,15.00
2023-05-09T08:24:46.606Z,12.75
2023-05-09T08:27:13.920Z,13.48
2023-05-09T08:29:40.663Z,13.30
2023-05-09T08:32:07.466Z,12.27
2023-05-09T08:34:34.734Z,11.52
2023-05-09T08:39:30.558Z,12.52
2023-05-09T08:42:00.855Z,12.32
2023-05-09T08:44:29.021Z,10.88
2023-05-09T08:46:59.664Z,11.10
2023-05-09T08:49:26.218Z,11.48
2023-05-09T08:51:56.490Z,9.77
2023-05-09T08:54:23.752Z,9.00
2023-05-09T08:56:50.814Z,8.10
2023-05-09T08:59:18.697Z,9.05
2023-05-09T09:01:46.165Z,7.70
2023-05-09T09:04:12.862Z,8.50
2023-05-09T09:06:39.683Z,7.82
2023-05-09T09:09:06.810Z,9.32
2023-05-09T09:11:34.277Z,10.00
2023-05-09T09:16:28.647Z,7.32
2023-05-09T09:18:58.001Z,10.50
2023-05-09T09:21:25.384Z,8.52
2023-05-09T09:23:52.633Z,7.90
2023-05-09T09:26:19.202Z,7.60
2023-05-09T09:28:45.784Z,7.78
2023-05-09T09:31:21.393Z,8.13
2023-05-09T09:33:48.610Z,8.23
2023-05-09T09:36:15.123Z,6.82
2023-05-09T09:38:43.790Z,7.53
2023-05-09T09:41:12.119Z,8.43
2023-05-09T09:43:38.716Z,6.68
2023-05-09T09:46:05.612Z,6.63
2023-05-09T09:48:35.510Z,7.70
2023-05-09T09:51:09.232Z,7.43
2023-05-09T09:53:42.473Z,8.10
2023-05-09T09:56:09.577Z,6.95
2023-05-09T09:58:36.415Z,7.03
2023-05-09T10:01:16.841Z,7.00
2023-05-09T10:03:45.115Z,6.25
2023-05-09T10:06:12.665Z,6.80
2023-05-09T10:08:39.769Z,6.47
2023-05-09T10:11:06.293Z,5.90
2023-05-09T10:13:39.368Z,8.65
2023-05-09T10:16:06.382Z,6.75
2023-05-09T10:18:33.981Z,9.90
2023-05-09T10:21:06.451Z,8.35
2023-05-09T10:23:34.992Z,7.60
2023-05-09T10:26:06.895Z,7.63
2023-05-09T10:28:35.061Z,5.85
2023-05-09T10:31:12.192Z,7.53
2023-05-09T10:33:42.822Z,6.22
2023-05-09T10:36:10.672Z,6.90
2023-05-09T10:38:37.386Z,6.43
2023-05-09T10:41:05.193Z,6.93
2023-05-09T10:43:32.248Z,7.22
2023-05-09T10:45:59.139Z,6.20
2023-05-09T10:48:26.425Z,6.72
2023-05-09T10:53:21.713Z,6.40
2023-05-09T10:56:00.269Z,6.55
2023-05-09T10:58:33.582Z,5.68
2023-05-09T11:01:00.816Z,5.32
2023-05-09T11:03:28.265Z,5.95
2023-05-09T11:05:56.023Z,4.85
2023-05-09T11:08:33.335Z,5.97
2023-05-09T11:11:05.479Z,5.97
2023-05-09T11:13:32.591Z,5.47
2023-05-09T11:15:59.485Z,5.50
2023-05-09T11:18:26.120Z,5.72
2023-05-09T11:20:52.637Z,4.90
2023-05-09T11:23:19.754Z,6.05
2023-05-09T11:25:47.389Z,5.00
2023-05-09T11:28:26.071Z,4.40
2023-05-09T11:30:54.781Z,5.65
2023-05-09T11:33:22.823Z,4.88
2023-05-09T11:36:09.322Z,5.03
2023-05-09T11:38:42.737Z,4.97
2023-05-09T11:41:09.354Z,5.10
2023-05-09T11:43:39.553Z,5.07
2023-05-09T11:46:06.242Z,4.30
2023-05-09T11:48:39.682Z,4.95
2023-05-09T11:51:07.327Z,5.50
2023-05-09T11:53:34.004Z,4.72
2023-05-09T11:56:07.176Z,5.45
2023-05-09T11:58:38.055Z,4.03
2023-05-09T12:01:04.848Z,5.70
2023-05-09T12:03:32.350Z,4.75
2023-05-09T12:08:25.513Z,4.28
2023-05-09T12:10:52.073Z,6.95
2023-05-09T12:13:19.450Z,3.80
2023-05-09T12:18:12.436Z,5.25
2023-05-09T12:20:42.770Z,3.45
2023-05-09T12:23:14.602Z,3.80
2023-05-09T12:26:07.471Z,3.42
2023-05-09T12:28:34.309Z,4.03
2023-05-09T12:31:01.282Z,5.03
2023-05-09T12:33:28.006Z,4.82
2023-05-09T12:36:03.176Z,4.45
2023-05-09T12:38:29.823Z,3.30
2023-05-09T12:41:04.026Z,3.90
2023-05-09T12:43:34.455Z,3.40
2023-05-09T12:46:02.335Z,3.85
2023-05-09T12:48:29.418Z,2.83
2023-05-09T12:50:55.869Z,4.03
2023-05-09T12:53:26.284Z,5.30
2023-05-09T12:56:03.635Z,3.20
2023-05-09T12:58:33.665Z,4.45
2023-05-09T13:01:05.652Z,4.95
2023-05-09T13:03:37.896Z,4.05
2023-05-09T13:06:05.440Z,5.22
2023-05-09T13:08:32.102Z,4.72
2023-05-09T13:11:12.186Z,5.53
2023-05-09T13:13:42.591Z,4.15
2023-05-09T13:16:10.724Z,4.63
2023-05-09T13:18:38.622Z,5.05
2023-05-09T13:21:05.356Z,3.63
2023-05-09T13:23:32.241Z,4.88
2023-05-09T13:25:58.812Z,4.88
2023-05-09T13:28:25.380Z,3.88
2023-05-09T13:30:51.912Z,4.13
2023-05-09T13:33:25.849Z,4.15
2023-05-09T13:35:53.109Z,5.05
2023-05-09T13:38:19.781Z,6.00
2023-05-09T13:40:46.381Z,2.35
2023-05-09T13:43:12.800Z,4.00
2023-05-09T13:45:39.393Z,3.88
2023-05-09T13:48:06.123Z,4.53
2023-05-09T13:50:32.677Z,4.43
2023-05-09T13:52:59.285Z,4.57
2023-05-09T13:55:27.112Z,4.47
2023-05-09T13:57:53.706Z,2.53
2023-05-09T14:00:21.618Z,3.88
2023-05-09T14:02:48.431Z,3.63
2023-05-09T14:05:15.020Z,3.40
2023-05-09T14:07:41.540Z,3.22
2023-05-09T14:10:11.950Z,7.45
2023-05-09T14:12:44.605Z,4.75
2023-05-09T14:15:11.420Z,3.58
2023-05-09T14:17:38.159Z,3.42
2023-05-09T14:20:04.903Z,5.63
2023-05-09T14:22:31.582Z,4.72
2023-05-09T14:24:58.536Z,5.25
2023-05-09T14:27:25.237Z,2.90
2023-05-09T14:29:51.786Z,6.78
2023-05-09T14:32:18.329Z,3.72
2023-05-09T14:34:45.673Z,5.93
2023-05-09T14:39:45.289Z,3.78
2023-05-09T14:42:14.143Z,3.72
2023-05-09T14:44:41.436Z,2.95
2023-05-09T14:49:34.952Z,3.78
2023-05-09T14:52:01.501Z,2.97
2023-05-09T14:54:28.007Z,3.72
2023-05-09T14:56:54.547Z,3.65
2023-05-09T14:59:21.424Z,3.17
2023-05-09T15:01:48.227Z,3.60
2023-05-09T15:04:14.952Z,2.08
2023-05-09T15:06:41.523Z,4.65
2023-05-09T15:09:08.418Z,3.88
2023-05-09T15:11:46.704Z,3.58
2023-05-09T15:14:14.931Z,2.30
2023-05-09T15:16:41.616Z,2.70
2023-05-09T15:19:08.289Z,2.15
2023-05-09T15:21:35.107Z,2.70
2023-05-09T15:24:02.533Z,2.58
2023-05-09T15:26:29.297Z,2.85
2023-05-09T15:28:55.829Z,3.05
2023-05-09T15:31:24.080Z,4.32
2023-05-09T15:33:50.587Z,2.70
2023-05-09T15:36:17.133Z,2.35
2023-05-09T15:38:48.321Z,3.33
2023-05-09T15:41:16.827Z,2.50
2023-05-09T15:43:46.531Z,2.75
2023-05-09T15:46:13.133Z,2.63
2023-05-09T15:48:39.628Z,2.10
2023-05-09T15:51:06.401Z,2.08
2023-05-09T15:53:32.827Z,2.10
2023-05-09T15:55:59.457Z,1.50
2023-05-09T15:58:26.006Z,3.17
2023-05-09T16:00:52.487Z,2.55
2023-05-09T16:03:19.139Z,2.85
2023-05-09T16:05:46.329Z,1.88
2023-05-09T16:08:13.041Z,2.63
2023-05-09T16:10:40.580Z,2.50
2023-05-09T16:13:07.304Z,2.83
2023-05-09T16:15:34.025Z,1.67
2023-05-09T16:18:00.474Z,1.40
2023-05-09T16:20:27.300Z,2.40
2023-05-09T16:22:53.762Z,2.47
2023-05-09T16:25:20.195Z,2.08
2023-05-09T16:27:46.666Z,1.73
2023-05-09T16:30:13.696Z,2.03
2023-05-09T16:32:40.445Z,1.60
2023-05-09T16:35:07.712Z,3.05
2023-05-09T16:37:35.660Z,1.75
2023-05-09T16:40:02.970Z,2.63
2023-05-09T16:42:29.504Z,2.63
2023-05-09T16:44:56.108Z,1.92
2023-05-09T16:47:23.082Z,2.45
2023-05-09T16:49:49.830Z,1.98
2023-05-09T16:52:16.854Z,2.75
2023-05-09T16:54:43.394Z,2.25
2023-05-09T16:57:09.834Z,3.47
2023-05-09T16:59:37.229Z,6.05
2023-05-09T17:02:04.550Z,29.38
2023-05-09T17:04:31.225Z,36.88
2023-05-09T17:06:57.942Z,31.02
2023-05-09T17:09:24.514Z,27.30
2023-05-09T17:11:51.202Z,22.15
2023-05-09T17:14:17.785Z,26.20
2023-05-09T17:16:44.728Z,24.15
2023-05-09T17:19:11.205Z,26.73
2023-05-09T17:21:41.449Z,22.55
2023-05-09T17:24:11.057Z,22.75
2023-05-09T17:26:38.848Z,21.95
2023-05-09T17:29:05.719Z,21.48
2023-05-09T17:31:32.495Z,19.88
2023-05-09T17:33:59.037Z,17.83
2023-05-09T17:36:25.966Z,18.90
2023-05-09T17:38:52.686Z,20.27
2023-05-09T17:41:19.457Z,18.48
2023-05-09T17:43:46.149Z,18.70
2023-05-09T17:46:14.783Z,18.42
2023-05-09T17:48:41.997Z,18.08
2023-05-09T17:51:08.571Z,16.00
2023-05-09T17:53:35.712Z,14.70
2023-05-09T17:56:02.352Z,15.02
2023-05-09T17:58:29.937Z,15.38
2023-05-09T18:00:58.832Z,14.82
2023-05-09T18:03:27.181Z,12.88
2023-05-09T18:05:53.796Z,13.07
2023-05-09T18:08:20.236Z,13.50
2023-05-09T18:10:46.816Z,13.00
2023-05-09T18:13:14.018Z,10.52
2023-05-09T18:15:41.284Z,11.15
2023-05-09T18:18:08.228Z,10.77
2023-05-09T18:20:34.862Z,10.82
2023-05-09T18:23:02.623Z,10.07
2023-05-09T18:25:29.215Z,9.00
2023-05-09T18:27:57.200Z,8.60
2023-05-09T18:30:23.660Z,12.43
2023-05-09T18:32:50.131Z,10.98
2023-05-09T18:35:16.613Z,9.23
2023-05-09T18:37:43.096Z,9.93
2023-05-09T18:40:14.710Z,10.55
2023-05-09T18:42:41.926Z,8.35
2023-05-09T18:45:09.669Z,8.82
2023-05-09T18:47:36.711Z,8.55
2023-05-09T18:50:04.158Z,8.35
2023-05-09T18:52:34.433Z,7.57
2023-05-09T18:55:00.960Z,8.00
2023-05-09T18:57:28.321Z,8.73
2023-05-09T19:02:22.441Z,9.18
2023-05-09T19:07:17.217Z,7.35
2023-05-09T19:09:44.082Z,7.93
2023-05-09T19:12:10.698Z,7.82
2023-05-09T19:14:40.145Z,8.45
2023-05-09T19:17:06.737Z,9.05
2023-05-09T19:19:38.094Z,8.02
2023-05-09T19:22:04.923Z,7.40
2023-05-09T19:24:35.572Z,7.70
2023-05-09T19:27:02.110Z,7.90
2023-05-09T19:29:28.565Z,7.72
2023-05-09T19:31:55.856Z,8.38
2023-05-09T19:34:22.871Z,10.10
2023-05-09T19:36:49.467Z,7.55
2023-05-09T19:39:15.894Z,6.82
2023-05-09T19:41:42.449Z,8.40
2023-05-09T19:44:08.982Z,7.25
2023-05-09T19:46:37.899Z,7.10
2023-05-09T19:49:04.843Z,8.57
2023-05-09T19:51:31.858Z,6.75
2023-05-09T19:53:58.705Z,7.82
2023-05-09T19:56:25.773Z,7.07
2023-05-09T19:58:52.298Z,7.35
2023-05-09T20:01:33.198Z,7.55
2023-05-09T20:04:00.291Z,8.07
2023-05-09T20:06:26.852Z,8.57
2023-05-09T20:08:53.390Z,6.93
2023-05-09T20:11:20.971Z,7.20
2023-05-09T20:13:47.379Z,6.25
2023-05-09T20:16:13.993Z,7.78
2023-05-09T20:18:40.509Z,6.80
2023-05-09T20:21:09.662Z,6.75
2023-05-09T20:23:36.972Z,6.65
2023-05-09T20:26:10.918Z,6.13
2023-05-09T20:28:38.177Z,6.63
2023-05-09T20:31:07.064Z,6.18
2023-05-09T20:33:36.943Z,7.05
2023-05-09T20:36:03.521Z,6.90
2023-05-09T20:38:33.100Z,6.18
2023-05-09T20:40:59.664Z,6.45
2023-05-09T20:43:26.278Z,6.40
2023-05-09T20:45:53.624Z,6.47
2023-05-09T20:50:51.421Z,5.78
2023-05-09T20:53:17.973Z,6.35
2023-05-09T20:55:45.520Z,5.63
2023-05-09T20:58:14.825Z,5.72
2023-05-09T21:00:41.460Z,6.13
2023-05-09T21:03:10.092Z,6.63
2023-05-09T21:05:36.835Z,6.90
2023-05-09T21:08:03.438Z,7.55
2023-05-09T21:10:29.984Z,5.10
2023-05-09T21:12:56.431Z,5.60
2023-05-09T21:15:23.060Z,6.97
2023-05-09T21:17:49.629Z,7.13
2023-05-09T21:20:16.515Z,6.70
2023-05-09T21:22:43.317Z,6.75
2023-05-09T21:25:09.822Z,6.20
2023-05-09T21:27:36.388Z,13.23
2023-05-09T21:30:03.042Z,9.68
2023-05-09T21:32:29.625Z,9.88
2023-05-09T21:34:56.167Z,9.85
2023-05-09T21:37:22.650Z,10.73
2023-05-09T21:39:49.134Z,8.90
2023-05-09T21:42:15.770Z,8.65
2023-05-09T21:44:42.161Z,11.30
2023-05-09T21:47:08.819Z,7.57
2023-05-09T21:49:35.804Z,9.32
2023-05-09T21:52:02.331Z,9.10
2023-05-09T21:54:28.732Z,9.43
2023-05-09T21:56:55.356Z,7.82
2023-05-09T21:59:22.355Z,14.32
2023-05-09T22:01:49.193Z,9.65
2023-05-09T22:04:16.022Z,9.50
2023-05-09T22:06:42.612Z,12.07
2023-05-09T22:09:09.605Z,9.50
2023-05-09T22:11:36.528Z,9.45
2023-05-09T22:14:03.137Z,12.23
2023-05-09T22:16:30.506Z,13.25
2023-05-09T22:18:57.266Z,9.75
2023-05-09T22:21:23.921Z,10.07
2023-05-09T22:23:50.344Z,10.10
2023-05-09T22:26:16.764Z,14.13
2023-05-09T22:28:43.289Z,10.23
2023-05-09T22:31:10.525Z,9.32
2023-05-09T22:33:36.919Z,9.25
2023-05-09T22:36:03.698Z,10.15
2023-05-09T22:38:30.126Z,11.30
2023-05-09T22:40:56.558Z,12.23
2023-05-09T22:43:24.169Z,11.45
2023-05-09T22:45:52.695Z,11.85
2023-05-09T22:48:19.259Z,12.07
2023-05-09T22:50:45.717Z,13.20
2023-05-09T22:53:12.430Z,13.43
2023-05-09T22:55:38.885Z,12.70
2023-05-09T22:58:05.753Z,13.77
2023-05-09T23:00:32.163Z,12.63
2023-05-09T23:03:00.280Z,14.07
2023-05-09T23:05:26.824Z,12.82
2023-05-09T23:07:53.732Z,13.38
2023-05-09T23:10:20.520Z,13.40
2023-05-09T23:12:47.044Z,13.63
2023-05-09T23:15:13.658Z,15.52
2023-05-09T23:17:40.099Z,13.88
2023-05-09T23:20:06.785Z,15.25
2023-05-09T23:22:33.284Z,15.70
2023-05-09T23:25:00.869Z,15.10
2023-05-09T23:27:27.896Z,15.23
2023-05-09T23:29:55.285Z,15.82
2023-05-09T23:32:21.811Z,17.95
2023-05-09T23:34:48.465Z,20.42
2023-05-09T23:37:14.948Z,16.42
2023-05-09T23:39:41.496Z,20.90
2023-05-09T23:42:08.212Z,23.95
2023-05-09T23:44:35.252Z,21.08
2023-05-09T23:47:02.280Z,23.63
2023-05-09T23:49:29.262Z,22.13
2023-05-09T23:51:56.844Z,22.13
2023-05-09T23:54:24.383Z,22.40
2023-05-09T23:59:17.070Z,20.63
